Rechercher aéroport 
image banner adimage banner adimage banner ad
image banner ad

63CN - Meadowlark Field

Situé à Livermore, United States

ICAO - 63CN, IATA -

Données fournies par Airmate  

Information générale

Coordonnées: N37°39'41" W121°41'37"
Élévation : 730 feet MSL.
Variation magnétique : 16° East
Voir autres Aéroports à California

Données opérationnelles

Special qualification required
Heure actuelle UTC:
Heure actuelle locale:
Météo à : KLVK - Livermore Muni ( 12 km )
METAR: KLVK 262153Z 22013KT 10SM CLR 30/06 A2987 RMK AO2 SLP110 T03000056
TAF: TAF KLVK 261720Z 2618/2718 VRB05KT P6SM SKC FM262100 28012KT P6SM SCT200 FM270200 29008KT P6SM BKN200 FM271000 VRB05KT P6SM BKN050 BKN200
Voir NOTAMs / SUP AIP / TFR affectant cet aéroport [VIEW]
Fréquences de communication: [VIEW]

Pistes:

Identifiant RWYQFULongueur (ft)Largeur (ft)SurfaceLDA (ft)
07186025OTHER
25186025OTHER

Coordonnées de l'aéroport

Adresse: Livermore United States

Vue satellite de 63CN